| time (UTC) | temp F | wind direction | speed knots | gust knots | rain 1hr in | rain 24hr in | rain mn in | humidity % | barometer mb |
| 20260507233009 | 53 | 39 | 0.0 | 2.6 | 0.00 | 0.23 | 0.00 | 91 | 988.7 |
| 20260507230011 | 53 | 41 | 0.0 | 2.6 | 0.00 | 0.26 | 0.00 | 91 | 988.7 |
| 20260507223009 | 53 | 53 | 0.0 | 2.6 | 0.00 | 0.26 | 0.00 | 89 | 988.6 |
| 20260507220011 | 54 | 73 | 0.0 | 0.0 | 0.00 | 0.27 | 0.00 | 89 | 988.7 |
| 20260507213010 | 55 | 73 | 0.0 | 4.3 | 0.00 | 0.27 | 0.26 | 85 | 988.4 |
| 20260507210011 | 57 | 335 | 2.6 | 6.1 | 0.00 | 0.27 | 0.26 | 81 | 988.3 |
| 20260507200013 | 58 | 46 | 0.0 | 2.6 | 0.00 | 0.27 | 0.26 | 74 | 987.8 |
| 20260507193012 | 59 | 56 | 0.9 | 1.7 | 0.00 | 0.27 | 0.26 | 70 | 987.1 |
| 20260507183009 | 65 | 34 | 4.3 | 5.2 | 0.00 | 0.27 | 0.26 | 52 | 986.7 |
| 20260507180009 | 66 | 55 | 1.7 | 5.2 | 0.00 | 0.27 | 0.26 | 57 | 986.3 |
| 20260507173009 | 68 | 64 | 2.6 | 6.1 | 0.00 | 0.28 | 0.26 | 52 | 986.2 |
| 20260507170010 | 68 | 78 | 4.3 | 6.1 | 0.00 | 0.28 | 0.26 | 50 | 986.0 |
| 20260507160010 | 71 | 52 | 1.7 | 4.3 | 0.00 | 0.28 | 0.26 | 45 | 985.7 |
| 20260507153009 | 72 | 64 | 2.6 | 5.2 | 0.00 | 0.28 | 0.26 | 42 | 985.9 |
| 20260507143008 | 72 | 70 | 2.6 | 7.0 | 0.00 | 0.28 | 0.26 | 42 | 986.0 |
| 20260507140012 | 69 | 61 | 4.3 | 7.0 | 0.00 | 0.28 | 0.26 | 48 | 986.4 |
| 20260507133011 | 70 | 66 | 1.7 | 6.1 | 0.00 | 0.28 | 0.26 | 46 | 986.6 |
| 20260507130015 | 67 | 79 | 3.5 | 7.8 | 0.00 | 0.28 | 0.26 | 46 | 986.8 |
| 20260507123009 | 69 | 68 | 0.9 | 7.0 | 0.00 | 0.28 | 0.26 | 51 | 986.9 |
| 20260507120011 | 67 | 75 | 1.7 | 7.8 | 0.00 | 0.35 | 0.26 | 54 | 987.1 |
| 20260507113008 | 65 | 69 | 1.7 | 5.2 | 0.00 | 0.59 | 0.26 | 58 | 987.3 |
| 20260507110009 | 67 | 69 | 2.6 | 5.2 | 0.00 | 0.59 | 0.26 | 58 | 987.5 |
| 20260507093011 | 62 | 66 | 2.6 | 5.2 | 0.00 | 0.59 | 0.26 | 66 | 988.1 |
| 20260507090011 | 61 | 62 | 0.9 | 4.3 | 0.00 | 0.59 | 0.26 | 73 | 987.9 |
| 20260507083007 | 59 | 57 | 0.9 | 7.8 | 0.00 | 0.59 | 0.26 | 76 | 987.7 |
| 20260507073013 | 55 | 60 | 2.6 | 7.8 | 0.00 | 0.59 | 0.26 | 84 | 987.8 |
| 20260507070014 | 54 | 59 | 4.3 | 7.8 | 0.00 | 0.59 | 0.26 | 87 | 987.6 |
| 20260507063007 | 53 | 58 | 2.6 | 10.4 | 0.00 | 0.59 | 0.26 | 86 | 987.5 |
| 20260507060011 | 53 | 45 | 5.2 | 11.3 | 0.00 | 0.59 | 0.26 | 86 | 987.2 |
| 20260507053008 | 53 | 39 | 6.1 | 14.8 | 0.00 | 0.59 | 0.26 | 87 | 986.9 |
| 20260507050009 | 52 | 46 | 7.0 | 13.0 | 0.00 | 0.59 | 0.26 | 90 | 986.6 |
| 20260507033007 | 52 | 53 | 4.3 | 11.3 | 0.00 | 0.86 | 0.26 | 94 | 985.9 |
| 20260507030007 | 52 | 55 | 4.3 | 11.3 | 0.00 | 0.86 | 0.26 | 95 | 986.0 |
| 20260507023006 | 52 | 47 | 5.2 | 10.4 | 0.00 | 0.87 | 0.26 | 95 | 986.0 |
| 20260507020009 | 52 | 51 | 3.5 | 12.2 | 0.00 | 0.87 | 0.26 | 95 | 986.1 |
| 20260507013006 | 52 | 42 | 6.1 | 13.0 | 0.01 | 0.87 | 0.26 | 96 | 985.9 |
| 20260507010006 | 52 | 51 | 3.5 | 8.7 | 0.17 | 0.87 | 0.26 | 96 | 985.8 |
| 20260507003007 | 53 | 34 | 4.3 | 13.0 | 0.18 | 0.86 | 0.25 | 95 | 985.7 |
| 20260507000011 | 53 | 35 | 6.1 | 11.3 | 0.08 | 0.70 | 0.09 | 94 | 985.8 |